首页
METAR-TAF:

METAR-TAF

机场 :

基什岛, 伊朗

纬度: 26-31-36N, 经度: 053-58-54E, 海拔: 30米

当前天气观测

该预报发布于54分钟前的08:00 UTC
风速12节,风向东南
温度 30°C
湿度 46%
气压 1012 hPa
能見度: 8000

METAR: OIBK 030800Z 13012KT 8000 NSC 30/17 Q1012 NOSIG

时间: 13:24 (08:54 UTC)

预报

该预报发布于3小时和54分钟前的05:00 UTC
预报有效从03日的 06点(UTC)到 04日的 12点(UTC)
风速8节,风向东转东南
能見度: 8000
少量云层高于4000英尺
短暂存在
从 03日的 11点(UTC)到 03日的 16点(UTC)
风速12节,风向西,有时为22节阵风
能見度: 4000
少量云层高于3500英尺, 积雨云.
散云层高于4000英尺
多云层高于10000英尺
扬沙
几率 40% :
短暂存在
从 03日的 23点(UTC)到 04日的 04点(UTC)
能見度: 3000

TAF: OIBK 030500Z 0306/0412 12008KT 8000 FEW040 TEMPO 0311/0316 26012G22KT 4000 SA FEW035CB SCT040 BKN100 PROB40 TEMPO 0323/0404 3000 HZ

超过4000个机场的气象观测和天气预报(METAR&TAF报告)。

可查询的气象台以黄色和红色小点在地图上表示。

将鼠标移到小点上方,可查看气象台名称。

然后点击查看天气观测和预报。

如需切换地图:点击带黑十字的绿色按钮放大地图;点击带横线的绿色按钮缩小地图;或者点击绿色箭头查看邻近地区的地图。


METAR-TAF: